Time;durP1;ratioP1;P1;durP2;ratioP2;P2;SDS_P1;SDS_P2;PMS_P1;PMS_P2;Temp;Humidity;BMP_temperature;BMP_pressure;BME280_temperature;BME280_humidity;BME280_pressure;Samples;Min_cycle;Max_cycle;Signal;HPM_P1;HPM_P2
2022/12/18 00:01:18;;;;;;;;;;;;;;;-4.54;95.99512;102900.3;;;;-78
2022/12/18 00:06:13;;;;;;;;;;;;;;;-4.56;96.01074;102886.6;;;;-77
2022/12/18 00:11:15;;;;;;;;;;;;;;;-4.59;95.98242;102885.8;;;;-77
2022/12/18 00:16:14;;;;;;;;;;;;;;;-4.57;96;102902.8;;;;-76
2022/12/18 00:21:14;;;;;;;;;;;;;;;-4.54;95.91016;102899.6;;;;-78
2022/12/18 00:23:35;;;;;;;23.2;8.3;;;;;;;;;;;;;-79
2022/12/18 00:26:15;;;;;;;;;;;;;;;-4.49;96.11133;102888.1;;;;-73
2022/12/18 00:31:15;;;;;;;;;;;;;;;-4.48;96.07129;102889.2;;;;-73
2022/12/18 00:36:14;;;;;;;;;;;;;;;-4.46;96.15234;102897.5;;;;-76
2022/12/18 00:42:55;;;;;;;;;;;;;;;-4.44;96.03906;102893.5;;;;-77
2022/12/18 00:46:13;;;;;;;;;;;;;;;-4.41;96.08789;102894.7;;;;-77
2022/12/18 00:51:13;;;;;;;;;;;;;;;-4.37;96.42773;102887.3;;;;-77
2022/12/18 00:53:33;;;;;;;25.5;9.4;;;;;;;;;;;;;-77
2022/12/18 00:56:13;;;;;;;;;;;;;;;-4.32;96.38477;102890.1;;;;-77
2022/12/18 01:01:13;;;;;;;;;;;;;;;-4.25;96.37988;102890.1;;;;-77
2022/12/18 01:06:15;;;;;;;;;;;;;;;-4.22;96.38672;102891.4;;;;-76
2022/12/18 01:11:15;;;;;;;;;;;;;;;-4.18;96.52246;102900.9;;;;-74
2022/12/18 01:16:15;;;;;;;;;;;;;;;-4.15;96.71973;102893.9;;;;-77
2022/12/18 01:21:14;;;;;;;;;;;;;;;-4.12;96.82422;102891.9;;;;-76
2022/12/18 01:23:31;;;;;;;25.8;9;;;;;;;;;;;;;-77
2022/12/18 01:26:14;;;;;;;;;;;;;;;-4.09;96.75586;102899.9;;;;-77
2022/12/18 01:31:20;;;;;;;;;;;;;;;-4.09;96.64941;102906.9;;;;-77
2022/12/18 01:36:18;;;;;;;;;;;;;;;-4.06;96.66895;102906.3;;;;-78
2022/12/18 01:41:13;;;;;;;;;;;;;;;-4.06;96.54102;102902.8;;;;-78
2022/12/18 01:46:13;;;;;;;;;;;;;;;-4.04;96.5127;102904.7;;;;-77
2022/12/18 01:51:14;;;;;;;;;;;;;;;-4.05;96.60645;102911.1;;;;-77
2022/12/18 01:53:29;;;;;;;21.1;8.1;;;;;;;;;;;;;-78
2022/12/18 01:56:15;;;;;;;;;;;;;;;-4.09;96.38379;102926;;;;-77
2022/12/18 02:01:13;;;;;;;;;;;;;;;-4.1;96.51953;102938.2;;;;-78
2022/12/18 02:06:16;;;;;;;;;;;;;;;-4.13;96.45801;102946.9;;;;-78
2022/12/18 02:11:16;;;;;;;;;;;;;;;-4.2;96.37109;102949;;;;-78
2022/12/18 02:16:17;;;;;;;;;;;;;;;-4.24;96.40137;102953.7;;;;-77
2022/12/18 02:21:23;;;;;;;;;;;;;;;-4.31;96.35547;102944.6;;;;-76
2022/12/18 02:23:33;;;;;;;22.4;8.3;;;;;;;;;;;;;-75
2022/12/18 02:26:18;;;;;;;;;;;;;;;-4.39;96.2959;102934.8;;;;-75
2022/12/18 02:31:15;;;;;;;;;;;;;;;-4.47;96.23535;102933.2;;;;-77
2022/12/18 02:36:14;;;;;;;;;;;;;;;-4.47;96.38379;102921.3;;;;-75
2022/12/18 02:41:14;;;;;;;;;;;;;;;-4.5;96.21777;102905.9;;;;-76
2022/12/18 02:46:27;;;;;;;;;;;;;;;-4.53;96.34766;102899.2;;;;-76
2022/12/18 02:51:19;;;;;;;;;;;;;;;-4.49;96.3877;102903.7;;;;-76
2022/12/18 02:53:28;;;;;;;26.2;8.4;;;;;;;;;;;;;-76
2022/12/18 02:56:16;;;;;;;;;;;;;;;-4.47;96.44727;102901.2;;;;-76
2022/12/18 03:01:15;;;;;;;;;;;;;;;-4.42;96.46875;102899.8;;;;-76
2022/12/18 03:06:16;;;;;;;;;;;;;;;-4.37;96.40625;102910.6;;;;-76
2022/12/18 03:11:15;;;;;;;;;;;;;;;-4.36;96.4707;102897.4;;;;-77
2022/12/18 03:16:14;;;;;;;;;;;;;;;-4.33;96.34863;102892.7;;;;-76
2022/12/18 03:21:14;;;;;;;;;;;;;;;-4.3;96.49707;102892.1;;;;-77
2022/12/18 03:23:25;;;;;;;20.7;7.8;;;;;;;;;;;;;-76
2022/12/18 03:26:14;;;;;;;;;;;;;;;-4.28;96.51074;102889.5;;;;-77
2022/12/18 03:31:14;;;;;;;;;;;;;;;-4.25;96.50586;102881;;;;-76
2022/12/18 03:36:13;;;;;;;;;;;;;;;-4.25;96.50781;102875;;;;-75
2022/12/18 03:41:16;;;;;;;;;;;;;;;-4.27;96.63184;102874.4;;;;-76
2022/12/18 03:46:16;;;;;;;;;;;;;;;-4.31;96.71875;102872.4;;;;-75
2022/12/18 03:51:14;;;;;;;;;;;;;;;-4.26;96.54883;102871;;;;-73
2022/12/18 03:53:27;;;;;;;19.8;7.5;;;;;;;;;;;;;-72
2022/12/18 03:56:13;;;;;;;;;;;;;;;-4.24;96.59277;102865.3;;;;-73
2022/12/18 04:01:15;;;;;;;;;;;;;;;-4.26;96.51465;102863;;;;-73
2022/12/18 04:06:13;;;;;;;;;;;;;;;-4.27;96.53516;102849.7;;;;-73
2022/12/18 04:11:13;;;;;;;;;;;;;;;-4.26;96.52734;102857.6;;;;-73
2022/12/18 04:16:13;;;;;;;;;;;;;;;-4.28;96.51172;102855.6;;;;-73
2022/12/18 04:21:13;;;;;;;;;;;;;;;-4.27;96.50391;102847.6;;;;-72
2022/12/18 04:23:21;;;;;;;19.2;7.2;;;;;;;;;;;;;-72
2022/12/18 04:26:12;;;;;;;;;;;;;;;-4.3;96.47656;102845.4;;;;-73
2022/12/18 04:31:13;;;;;;;;;;;;;;;-4.29;96.4248;102849.5;;;;-74
2022/12/18 04:36:13;;;;;;;;;;;;;;;-4.3;96.5166;102857.1;;;;-74
2022/12/18 04:41:13;;;;;;;;;;;;;;;-4.33;96.46777;102864.9;;;;-74
2022/12/18 04:46:13;;;;;;;;;;;;;;;-4.36;96.49121;102875.2;;;;-74
2022/12/18 04:51:13;;;;;;;;;;;;;;;-4.41;96.33203;102889.4;;;;-72
2022/12/18 04:53:19;;;;;;;21.3;7.7;;;;;;;;;;;;;-72
2022/12/18 04:56:14;;;;;;;;;;;;;;;-4.51;96.33105;102897.3;;;;-72
2022/12/18 05:01:14;;;;;;;;;;;;;;;-4.56;96.32031;102903.8;;;;-75
2022/12/18 05:06:13;;;;;;;;;;;;;;;-4.66;96.18066;102906.9;;;;-73
2022/12/18 05:11:14;;;;;;;;;;;;;;;-4.71;96.0625;102907.8;;;;-73
2022/12/18 05:16:13;;;;;;;;;;;;;;;-4.76;95.9541;102915.8;;;;-74
2022/12/18 05:21:13;;;;;;;;;;;;;;;-4.82;95.80371;102912.2;;;;-71
2022/12/18 05:23:18;;;;;;;20.2;7.6;;;;;;;;;;;;;-73
2022/12/18 05:26:17;;;;;;;;;;;;;;;-4.88;95.86328;102909.8;;;;-73
2022/12/18 05:31:13;;;;;;;;;;;;;;;-4.93;95.56836;102906;;;;-73
2022/12/18 05:36:13;;;;;;;;;;;;;;;-5;95.56055;102899.1;;;;-73
2022/12/18 05:41:13;;;;;;;;;;;;;;;-5.04;95.57422;102889.6;;;;-72
2022/12/18 05:46:16;;;;;;;;;;;;;;;-5.1;95.46582;102891;;;;-73
2022/12/18 05:51:14;;;;;;;;;;;;;;;-5.13;95.39453;102887.9;;;;-74
2022/12/18 05:53:17;;;;;;;21.9;7.3;;;;;;;;;;;;;-73
2022/12/18 05:56:14;;;;;;;;;;;;;;;-5.18;95.42578;102885.5;;;;-73
2022/12/18 06:01:17;;;;;;;;;;;;;;;-5.24;95.34863;102875.2;;;;-73
2022/12/18 06:06:20;;;;;;;;;;;;;;;-5.19;95.28418;102873.4;;;;-74
2022/12/18 06:11:13;;;;;;;;;;;;;;;-5.25;95.20801;102875.5;;;;-74
2022/12/18 06:16:13;;;;;;;;;;;;;;;-5.29;95.21875;102870;;;;-73
2022/12/18 06:21:14;;;;;;;;;;;;;;;-5.33;95.1875;102861.3;;;;-73
2022/12/18 06:23:18;;;;;;;17.7;7.4;;;;;;;;;;;;;-73
2022/12/18 06:26:14;;;;;;;;;;;;;;;-5.34;95.3252;102862.5;;;;-73
2022/12/18 06:31:13;;;;;;;;;;;;;;;-5.37;95.2666;102853.5;;;;-73
2022/12/18 06:36:14;;;;;;;;;;;;;;;-5.39;95.2627;102840.3;;;;-72
2022/12/18 06:41:14;;;;;;;;;;;;;;;-5.4;95.25781;102834.5;;;;-73
2022/12/18 06:46:13;;;;;;;;;;;;;;;-5.4;95.16309;102819.6;;;;-73
2022/12/18 06:51:13;;;;;;;;;;;;;;;-5.38;95.14551;102808;;;;-73
2022/12/18 06:53:14;;;;;;;16;6.5;;;;;;;;;;;;;-71
2022/12/18 06:56:13;;;;;;;;;;;;;;;-5.43;95.11426;102797.1;;;;-73
2022/12/18 07:01:14;;;;;;;;;;;;;;;-5.36;95.03516;102801.7;;;;-73
2022/12/18 07:06:16;;;;;;;;;;;;;;;-5.41;95.13086;102794.2;;;;-73
2022/12/18 07:11:13;;;;;;;;;;;;;;;-5.42;95.0332;102798.4;;;;-73
2022/12/18 07:16:15;;;;;;;;;;;;;;;-5.41;95.02246;102806.7;;;;-75
2022/12/18 07:21:14;;;;;;;;;;;;;;;-5.43;94.94434;102808.8;;;;-74
2022/12/18 07:23:12;;;;;;;13.4;5.6;;;;;;;;;;;;;-74
2022/12/18 07:26:13;;;;;;;;;;;;;;;-5.44;94.9209;102795.7;;;;-74
2022/12/18 07:31:14;;;;;;;;;;;;;;;-5.46;94.93848;102792.3;;;;-73
2022/12/18 07:36:13;;;;;;;;;;;;;;;-5.44;94.87891;102773.8;;;;-74
2022/12/18 07:41:13;;;;;;;;;;;;;;;-5.46;94.89551;102758;;;;-73
2022/12/18 07:46:14;;;;;;;;;;;;;;;-5.48;94.95313;102751;;;;-73
2022/12/18 07:51:14;;;;;;;;;;;;;;;-5.47;94.8623;102742.6;;;;-77
2022/12/18 07:53:11;;;;;;;13.8;5.2;;;;;;;;;;;;;-77
2022/12/18 07:56:13;;;;;;;;;;;;;;;-5.5;94.93848;102734.6;;;;-76
2022/12/18 08:01:13;;;;;;;;;;;;;;;-5.49;94.81543;102740.7;;;;-73
2022/12/18 08:06:14;;;;;;;;;;;;;;;-5.49;94.84766;102744.4;;;;-73
2022/12/18 08:11:13;;;;;;;;;;;;;;;-5.47;94.77734;102750.5;;;;-72
2022/12/18 08:16:13;;;;;;;;;;;;;;;-5.44;94.83594;102759.2;;;;-73
2022/12/18 08:21:17;;;;;;;;;;;;;;;-5.43;94.80664;102770.9;;;;-76
2022/12/18 08:23:09;;;;;;;11.5;5;;;;;;;;;;;;;-76
2022/12/18 08:26:13;;;;;;;;;;;;;;;-5.38;94.81836;102781.1;;;;-75
2022/12/18 08:31:13;;;;;;;;;;;;;;;-5.35;94.79297;102779.7;;;;-76
2022/12/18 08:36:13;;;;;;;;;;;;;;;-5.36;94.8125;102779.8;;;;-75
2022/12/18 08:41:17;;;;;;;;;;;;;;;-5.33;94.79688;102784.9;;;;-77
2022/12/18 08:46:12;;;;;;;;;;;;;;;-5.28;94.74316;102775.8;;;;-77
2022/12/18 08:51:13;;;;;;;;;;;;;;;-5.23;94.73438;102753;;;;-76
2022/12/18 08:53:09;;;;;;;11.6;4.9;;;;;;;;;;;;;-77
2022/12/18 08:56:13;;;;;;;;;;;;;;;-5.21;94.80273;102737.3;;;;-76
2022/12/18 09:01:13;;;;;;;;;;;;;;;-5.13;94.89453;102756.7;;;;-76
2022/12/18 09:06:13;;;;;;;;;;;;;;;-5.06;94.86914;102748.6;;;;-76
2022/12/18 09:11:15;;;;;;;;;;;;;;;-4.99;94.80078;102754.8;;;;-76
2022/12/18 09:16:13;;;;;;;;;;;;;;;-4.94;94.93848;102768.6;;;;-75
2022/12/18 09:21:17;;;;;;;;;;;;;;;-4.88;94.84375;102764.6;;;;-77
2022/12/18 09:23:06;;;;;;;11.4;5.2;;;;;;;;;;;;;-77
2022/12/18 09:26:12;;;;;;;;;;;;;;;-4.84;94.9707;102753.1;;;;-76
2022/12/18 09:31:17;;;;;;;;;;;;;;;-4.78;95.13184;102727.6;;;;-76
2022/12/18 09:36:15;;;;;;;;;;;;;;;-4.7;95.20605;102721;;;;-76
2022/12/18 09:41:20;;;;;;;;;;;;;;;-4.67;95.20117;102718.3;;;;-76
2022/12/18 09:46:15;;;;;;;;;;;;;;;-4.6;95.30078;102707.6;;;;-74
2022/12/18 09:51:17;;;;;;;;;;;;;;;-4.52;95.28711;102714.5;;;;-73
2022/12/18 09:53:08;;;;;;;11.8;5.5;;;;;;;;;;;;;-74
2022/12/18 09:56:16;;;;;;;;;;;;;;;-4.48;95.32715;102713.5;;;;-72
2022/12/18 10:01:16;;;;;;;;;;;;;;;-4.42;95.32031;102691.3;;;;-72
2022/12/18 10:06:17;;;;;;;;;;;;;;;-4.37;95.44922;102687.9;;;;-72
2022/12/18 10:11:23;;;;;;;;;;;;;;;-4.32;95.48145;102697.9;;;;-73
2022/12/18 10:16:17;;;;;;;;;;;;;;;-4.27;95.47168;102702.6;;;;-72
2022/12/18 10:21:15;;;;;;;;;;;;;;;-4.22;95.46094;102698.9;;;;-73
2022/12/18 10:23:07;;;;;;;15;5.4;;;;;;;;;;;;;-73
2022/12/18 10:26:13;;;;;;;;;;;;;;;-4.14;95.41602;102692.4;;;;-73
2022/12/18 10:31:18;;;;;;;;;;;;;;;-4.08;95.51367;102692.9;;;;-73
2022/12/18 10:36:13;;;;;;;;;;;;;;;-4.03;95.50195;102692.3;;;;-72
2022/12/18 10:41:25;;;;;;;;;;;;;;;-3.98;95.42969;102697.3;;;;-76
2022/12/18 10:46:18;;;;;;;;;;;;;;;-3.94;95.37598;102690.7;;;;-75
2022/12/18 10:51:13;;;;;;;;;;;;;;;-3.88;95.1748;102676.2;;;;-76
2022/12/18 10:53:03;;;;;;;13.4;5.9;;;;;;;;;;;;;-75
2022/12/18 10:56:13;;;;;;;;;;;;;;;-3.86;95.33008;102649.9;;;;-76
2022/12/18 11:01:15;;;;;;;;;;;;;;;-3.8;95.13184;102644.5;;;;-75
2022/12/18 11:06:14;;;;;;;;;;;;;;;-3.77;95.31641;102632.6;;;;-77
2022/12/18 11:11:23;;;;;;;;;;;;;;;-3.72;95.25488;102631.2;;;;-76
2022/12/18 11:16:21;;;;;;;;;;;;;;;-3.66;95.09668;102629.5;;;;-78
2022/12/18 11:21:15;;;;;;;;;;;;;;;-3.65;95.32422;102630;;;;-76
2022/12/18 11:23:07;;;;;;;13.7;6.1;;;;;;;;;;;;;-76
2022/12/18 11:26:12;;;;;;;;;;;;;;;-3.59;95.27246;102637.2;;;;-76
2022/12/18 11:31:36;;;;;;;;;;;;;;;-3.53;95.19043;102629;;;;-73
2022/12/18 11:36:13;;;;;;;;;;;;;;;-3.48;95.40332;102615.5;;;;-73
2022/12/18 11:41:23;;;;;;;;;;;;;;;-3.41;95.14063;102611.3;;;;-73
2022/12/18 11:46:16;;;;;;;;;;;;;;;-3.36;95.27051;102594;;;;-73
2022/12/18 11:51:15;;;;;;;;;;;;;;;-3.33;95.18262;102582.7;;;;-73
2022/12/18 11:52:58;;;;;;;12;5.8;;;;;;;;;;;;;-73
2022/12/18 11:56:24;;;;;;;;;;;;;;;-3.28;95.25879;102572.1;;;;-73
2022/12/18 12:01:20;;;;;;;;;;;;;;;-3.25;95.23242;102564.2;;;;-73
2022/12/18 12:06:19;;;;;;;;;;;;;;;-3.21;95.1748;102550.9;;;;-72
2022/12/18 12:11:16;;;;;;;;;;;;;;;-3.18;95.28125;102541.8;;;;-73
2022/12/18 12:16:19;;;;;;;;;;;;;;;-3.12;95.00586;102540.9;;;;-72
2022/12/18 12:21:21;;;;;;;;;;;;;;;-3.1;95.31934;102531.6;;;;-73
2022/12/18 12:23:02;;;;;;;13;5.7;;;;;;;;;;;;;-73
2022/12/18 12:26:15;;;;;;;;;;;;;;;-3.06;95.41211;102528.6;;;;-73
2022/12/18 12:31:20;;;;;;;;;;;;;;;-3;95.3623;102525.6;;;;-77
2022/12/18 12:36:18;;;;;;;;;;;;;;;-2.96;95.35156;102516.7;;;;-77
2022/12/18 12:46:14;;;;;;;;;;;;;;;-2.84;95.17285;102510.3;;;;-76
2022/12/18 12:51:17;;;;;;;;;;;;;;;-2.81;95.05371;102509.5;;;;-75
2022/12/18 12:52:59;;;;;;;13.1;6.2;;;;;;;;;;;;;-76
2022/12/18 12:56:14;;;;;;;;;;;;;;;-2.78;94.6875;102512.5;;;;-76
2022/12/18 13:01:18;;;;;;;;;;;;;;;-2.74;94.85449;102501.4;;;;-76
2022/12/18 13:06:17;;;;;;;;;;;;;;;-2.7;94.92773;102496.1;;;;-76
2022/12/18 13:16:13;;;;;;;;;;;;;;;-2.63;94.94434;102477.9;;;;-77
2022/12/18 13:21:23;;;;;;;;;;;;;;;-2.58;94.60254;102461.7;;;;-76
2022/12/18 13:22:55;;;;;;;13.1;6;;;;;;;;;;;;;-74
2022/12/18 13:26:24;;;;;;;;;;;;;;;-2.53;94.32422;102450.9;;;;-73
2022/12/18 13:31:12;;;;;;;;;;;;;;;-2.52;94.15723;102439.8;;;;-73
2022/12/18 13:36:17;;;;;;;;;;;;;;;-2.48;93.88672;102418;;;;-74
2022/12/18 13:41:25;;;;;;;;;;;;;;;-2.47;94.1582;102409.2;;;;-74
2022/12/18 13:46:22;;;;;;;;;;;;;;;-2.48;94.70996;102397.8;;;;-74
2022/12/18 13:51:15;;;;;;;;;;;;;;;-2.43;94.10059;102384.5;;;;-73
2022/12/18 13:52:54;;;;;;;15;6.1;;;;;;;;;;;;;-73
2022/12/18 13:56:13;;;;;;;;;;;;;;;-2.41;94.06348;102385;;;;-74
2022/12/18 14:01:19;;;;;;;;;;;;;;;-2.38;93.8877;102386.6;;;;-76
2022/12/18 14:06:16;;;;;;;;;;;;;;;-2.36;93.78711;102388.6;;;;-77
2022/12/18 14:11:21;;;;;;;;;;;;;;;-2.34;93.90625;102378.3;;;;-77
2022/12/18 14:16:20;;;;;;;;;;;;;;;-2.32;93.88965;102372.8;;;;-76
2022/12/18 14:21:20;;;;;;;;;;;;;;;-2.31;93.8291;102372.6;;;;-76
2022/12/18 14:22:52;;;;;;;13.7;5.6;;;;;;;;;;;;;-77
2022/12/18 14:26:27;;;;;;;;;;;;;;;-2.3;93.71387;102366.9;;;;-77
2022/12/18 14:31:26;;;;;;;;;;;;;;;-2.28;93.81543;102359.1;;;;-77
2022/12/18 14:36:19;;;;;;;;;;;;;;;-2.26;93.92676;102345.4;;;;-77
2022/12/18 14:41:15;;;;;;;;;;;;;;;-2.27;94.18945;102338.1;;;;-75
2022/12/18 14:46:22;;;;;;;;;;;;;;;-2.25;94.24707;102322.8;;;;-76
2022/12/18 14:51:19;;;;;;;;;;;;;;;-2.25;93.90527;102310.5;;;;-76
2022/12/18 14:52:50;;;;;;;14.2;5.9;;;;;;;;;;;;;-77
2022/12/18 14:56:19;;;;;;;;;;;;;;;-2.23;93.80469;102308.8;;;;-78
2022/12/18 15:01:22;;;;;;;;;;;;;;;-2.2;93.68164;102313.8;;;;-77
2022/12/18 15:06:32;;;;;;;;;;;;;;;-2.2;93.6709;102314;;;;-77
2022/12/18 15:11:26;;;;;;;;;;;;;;;-2.18;93.64355;102312.9;;;;-78
2022/12/18 15:16:15;;;;;;;;;;;;;;;-2.18;93.75195;102301.6;;;;-75
2022/12/18 15:21:20;;;;;;;;;;;;;;;-2.16;93.6582;102295.9;;;;-77
2022/12/18 15:22:50;;;;;;;18.5;6.5;;;;;;;;;;;;;-77
2022/12/18 15:26:15;;;;;;;;;;;;;;;-2.14;93.64063;102303.2;;;;-78
2022/12/18 15:31:25;;;;;;;;;;;;;;;-2.13;93.52637;102292.6;;;;-77
2022/12/18 15:36:13;;;;;;;;;;;;;;;-2.1;93.39355;102268.8;;;;-77
2022/12/18 15:41:15;;;;;;;;;;;;;;;-2.09;93.21387;102269.9;;;;-77
2022/12/18 15:46:14;;;;;;;;;;;;;;;-2.08;93.05762;102261.8;;;;-77
2022/12/18 15:51:15;;;;;;;;;;;;;;;-2.05;92.69727;102240.5;;;;-77
2022/12/18 15:52:49;;;;;;;18.6;6.2;;;;;;;;;;;;;-77
2022/12/18 16:01:14;;;;;;;;;;;;;;;-2.04;92.6377;102229.5;;;;-77
2022/12/18 16:06:13;;;;;;;;;;;;;;;-2.01;92.37598;102222.3;;;;-77
2022/12/18 16:11:19;;;;;;;;;;;;;;;-1.97;91.83789;102228.8;;;;-77
2022/12/18 16:16:12;;;;;;;;;;;;;;;-1.97;91.8916;102227.8;;;;-77
2022/12/18 16:21:13;;;;;;;;;;;;;;;-1.95;91.78809;102218.3;;;;-77
2022/12/18 16:22:46;;;;;;;16.8;7;;;;;;;;;;;;;-76
2022/12/18 16:26:12;;;;;;;;;;;;;;;-1.96;91.90332;102218.6;;;;-78
2022/12/18 16:31:15;;;;;;;;;;;;;;;-1.94;91.73633;102209.1;;;;-76
2022/12/18 16:36:12;;;;;;;;;;;;;;;-1.95;91.7666;102205.2;;;;-76
2022/12/18 16:46:13;;;;;;;;;;;;;;;-1.92;91.64551;102188.7;;;;-76
2022/12/18 16:51:12;;;;;;;;;;;;;;;-1.92;91.60254;102181.7;;;;-76
2022/12/18 16:52:45;;;;;;;16.9;6.6;;;;;;;;;;;;;-77
2022/12/18 16:56:12;;;;;;;;;;;;;;;-1.93;91.76172;102174.1;;;;-77
2022/12/18 17:01:14;;;;;;;;;;;;;;;-1.88;91.2998;102162.7;;;;-77
2022/12/18 17:06:13;;;;;;;;;;;;;;;-1.86;91.30469;102178.1;;;;-77
2022/12/18 17:11:13;;;;;;;;;;;;;;;-1.85;91.24219;102177.5;;;;-78
2022/12/18 17:16:13;;;;;;;;;;;;;;;-1.86;91.15625;102178.7;;;;-76
2022/12/18 17:21:13;;;;;;;;;;;;;;;-1.88;91.6748;102172.4;;;;-76
2022/12/18 17:22:43;;;;;;;16.8;6.7;;;;;;;;;;;;;-76
2022/12/18 17:26:13;;;;;;;;;;;;;;;-1.87;91.5918;102170.2;;;;-77
2022/12/18 17:31:22;;;;;;;;;;;;;;;-1.85;91.43652;102162.3;;;;-78
2022/12/18 17:36:15;;;;;;;;;;;;;;;-1.83;91.4082;102156.8;;;;-77
2022/12/18 17:41:14;;;;;;;;;;;;;;;-1.81;91.13379;102160.1;;;;-78
2022/12/18 17:46:12;;;;;;;;;;;;;;;-1.79;91.25391;102156.8;;;;-77
2022/12/18 17:51:16;;;;;;;;;;;;;;;-1.79;91.25586;102155.5;;;;-77
2022/12/18 17:52:42;;;;;;;16.2;7.3;;;;;;;;;;;;;-77
2022/12/18 17:56:14;;;;;;;;;;;;;;;-1.75;91.11523;102157.8;;;;-77
2022/12/18 18:01:15;;;;;;;;;;;;;;;-1.76;91.16699;102141;;;;-77
2022/12/18 18:06:13;;;;;;;;;;;;;;;-1.74;91.12598;102143.8;;;;-78
2022/12/18 18:16:13;;;;;;;;;;;;;;;-1.66;90.83301;102145.9;;;;-78
2022/12/18 18:21:12;;;;;;;;;;;;;;;-1.66;90.82227;102140.1;;;;-78
2022/12/18 18:22:41;;;;;;;21.8;8.1;;;;;;;;;;;;;-78
2022/12/18 18:26:13;;;;;;;;;;;;;;;-1.63;90.83008;102134.7;;;;-79
2022/12/18 18:31:13;;;;;;;;;;;;;;;-1.61;90.97266;102134.4;;;;-78
2022/12/18 18:36:13;;;;;;;;;;;;;;;-1.59;90.85938;102135;;;;-78
2022/12/18 18:41:13;;;;;;;;;;;;;;;-1.58;91.11816;102134;;;;-77
2022/12/18 18:46:21;;;;;;;;;;;;;;;-1.58;91.17188;102131.6;;;;-77
2022/12/18 18:51:19;;;;;;;;;;;;;;;-1.55;90.88965;102121.7;;;;-78
2022/12/18 18:52:47;;;;;;;16.8;7.6;;;;;;;;;;;;;-78
2022/12/18 18:56:13;;;;;;;;;;;;;;;-1.53;90.87109;102116.3;;;;-77
2022/12/18 19:01:14;;;;;;;;;;;;;;;-1.49;90.89063;102106.2;;;;-78
2022/12/18 19:06:16;;;;;;;;;;;;;;;-1.48;91.01074;102107.9;;;;-78
2022/12/18 19:13:19;;;;;;;;;;;;;;;-1.46;90.85449;102103.3;;;;-76
2022/12/18 19:16:13;;;;;;;;;;;;;;;-1.42;90.88281;102104.4;;;;-77
2022/12/18 19:21:13;;;;;;;;;;;;;;;-1.42;90.93652;102099.7;;;;-78
2022/12/18 19:22:38;;;;;;;20.9;8.4;;;;;;;;;;;;;-76
2022/12/18 19:26:13;;;;;;;;;;;;;;;-1.42;91.09961;102099.5;;;;-79
2022/12/18 19:31:13;;;;;;;;;;;;;;;-1.37;91.08789;102095.1;;;;-78
2022/12/18 19:36:21;;;;;;;;;;;;;;;-1.36;91.13281;102095;;;;-77
2022/12/18 19:41:13;;;;;;;;;;;;;;;-1.29;91.22168;102098.5;;;;-79
2022/12/18 19:46:14;;;;;;;;;;;;;;;-1.19;90.93555;102099;;;;-77
2022/12/18 19:51:14;;;;;;;;;;;;;;;-1.12;90.97949;102090.8;;;;-78
2022/12/18 19:52:39;;;;;;;20.9;8.1;;;;;;;;;;;;;-78
2022/12/18 19:56:16;;;;;;;;;;;;;;;-1.1;91.37012;102089.6;;;;-79
2022/12/18 20:01:12;;;;;;;;;;;;;;;-1.07;91.68848;102087.5;;;;-78
2022/12/18 20:06:17;;;;;;;;;;;;;;;-1.06;91.99121;102087.8;;;;-79
2022/12/18 20:11:12;;;;;;;;;;;;;;;-1.04;92.31738;102086.6;;;;-77
2022/12/18 20:16:12;;;;;;;;;;;;;;;-1;92.5625;102085.1;;;;-79
2022/12/18 20:21:12;;;;;;;;;;;;;;;-0.98;92.7168;102080.5;;;;-78
2022/12/18 20:22:37;;;;;;;20.2;8.2;;;;;;;;;;;;;-78
2022/12/18 20:26:12;;;;;;;;;;;;;;;-0.97;92.86719;102065.1;;;;-77
2022/12/18 20:31:14;;;;;;;;;;;;;;;-0.97;93.06055;102058;;;;-78
2022/12/18 20:36:16;;;;;;;;;;;;;;;-0.93;93.52246;102042.5;;;;-77
2022/12/18 20:41:15;;;;;;;;;;;;;;;-0.96;93.60254;102044.5;;;;-78
2022/12/18 20:46:13;;;;;;;;;;;;;;;-0.91;93.95605;102034.3;;;;-78
2022/12/18 20:51:13;;;;;;;;;;;;;;;-0.88;94.16602;102032.7;;;;-77
2022/12/18 20:52:35;;;;;;;19.8;8.4;;;;;;;;;;;;;-77
2022/12/18 20:56:13;;;;;;;;;;;;;;;-0.86;94.28711;102024;;;;-78
2022/12/18 21:01:13;;;;;;;;;;;;;;;-0.88;94.33691;102011.9;;;;-77
2022/12/18 21:06:13;;;;;;;;;;;;;;;-0.86;94.65234;102008.2;;;;-78
2022/12/18 21:16:12;;;;;;;;;;;;;;;-0.82;95.0166;101992.8;;;;-76
2022/12/18 21:21:12;;;;;;;;;;;;;;;-0.84;94.98047;101992.8;;;;-77
2022/12/18 21:22:34;;;;;;;21.9;8.6;;;;;;;;;;;;;-78
2022/12/18 21:26:23;;;;;;;;;;;;;;;-0.85;95.09375;101983.2;;;;-77
2022/12/18 21:31:12;;;;;;;;;;;;;;;-0.82;95.33789;101974.5;;;;-77
2022/12/18 21:36:13;;;;;;;;;;;;;;;-0.77;95.62695;101965.8;;;;-77
2022/12/18 21:44:04;;;;;;;;;;;;;;;-0.78;95.73242;101961.5;;;;-74
2022/12/18 21:46:12;;;;;;;;;;;;;;;-0.77;95.82031;101952.3;;;;-74
2022/12/18 21:51:12;;;;;;;;;;;;;;;-0.77;95.82031;101935.6;;;;-74
2022/12/18 21:52:32;;;;;;;22;8.7;;;;;;;;;;;;;-73
2022/12/18 21:56:12;;;;;;;;;;;;;;;-0.75;95.95313;101926.1;;;;-74
2022/12/18 22:01:12;;;;;;;;;;;;;;;-0.71;96.40332;101921.5;;;;-74
2022/12/18 22:06:12;;;;;;;;;;;;;;;-0.69;96.59961;101917.8;;;;-73
2022/12/18 22:11:49;;;;;;;;;;;;;;;-0.59;96.87109;101911.3;;;;-72
2022/12/18 22:14:22;;;;;;;;;;;;;;;-0.63;96.99805;101914.8;;;;-73
2022/12/18 22:19:23;;;;;;;;;;;;;;;-0.65;97.12305;101886.5;;;;-73
2022/12/18 22:22:31;;;;;;;22.4;9.2;;;;;;;;;;;;;-74
2022/12/18 22:24:22;;;;;;;;;;;;;;;-0.65;97.17871;101868;;;;-73
2022/12/18 22:34:22;;;;;;;;;;;;;;;-0.59;97.7168;101840.3;;;;-74
2022/12/18 22:39:23;;;;;;;;;;;;;;;-0.6;97.73438;101829.5;;;;-74
2022/12/18 22:49:23;;;;;;;;;;;;;;;-0.56;98.10059;101826.8;;;;-78
2022/12/18 22:52:30;;;;;;;23.9;10.1;;;;;;;;;;;;;-77
2022/12/18 22:54:24;;;;;;;;;;;;;;;-0.54;98.12598;101817.4;;;;-78
2022/12/18 22:59:23;;;;;;;;;;;;;;;-0.53;98.2334;101811.7;;;;-78
2022/12/18 23:04:22;;;;;;;;;;;;;;;-0.53;98.22266;101814.5;;;;-78
2022/12/18 23:09:23;;;;;;;;;;;;;;;-0.52;98.53711;101817.7;;;;-79
2022/12/18 23:14:22;;;;;;;;;;;;;;;-0.51;98.625;101812.3;;;;-79
2022/12/18 23:19:22;;;;;;;;;;;;;;;-0.51;98.76465;101793.8;;;;-78
2022/12/18 23:22:29;;;;;;;21;9.5;;;;;;;;;;;;;-78
2022/12/18 23:24:23;;;;;;;;;;;;;;;-0.5;98.86328;101790.8;;;;-78
2022/12/18 23:29:22;;;;;;;;;;;;;;;-0.49;98.94043;101779.4;;;;-79
2022/12/18 23:34:22;;;;;;;;;;;;;;;-0.47;99.05176;101766.6;;;;-81
2022/12/18 23:39:22;;;;;;;;;;;;;;;-0.44;99.26172;101771;;;;-79
2022/12/18 23:44:22;;;;;;;;;;;;;;;-0.43;99.28516;101782.3;;;;-78
2022/12/18 23:49:25;;;;;;;;;;;;;;;-0.4;99.59375;101788.7;;;;-79
2022/12/18 23:52:28;;;;;;;26.4;10;;;;;;;;;;;;;-80
2022/12/18 23:54:22;;;;;;;;;;;;;;;-0.37;99.80664;101784.2;;;;-78
2022/12/18 23:59:22;;;;;;;;;;;;;;;-0.33;99.85547;101772.5;;;;-75
